This is the latest recevied weather packets stored in our database for station/object KP4OZ. If no packets are shown the sender has not sent any weather packets the latest 10 day(s).
| Time | Temp. | Humidity | Pressure | Rain* | Wind** | Luminosity | Snow |
|---|---|---|---|---|---|---|---|
| 1777750583 | 32.78° C | 52% | 1014.5 hPa | 0 mm | - | - | - |
| 1777750280 | 32.78° C | 53% | 1014.5 hPa | 0 mm | - | - | - |
| 1777749975 | 32.22° C | 54% | 1014.3 hPa | 0 mm | - | - | - |
| 1777749674 | 31.67° C | 55% | 1014.5 hPa | 0 mm | - | - | - |
| 1777749370 | 32.22° C | 53% | 1014.6 hPa | 0 mm | - | - | - |
| 1777749068 | 33.33° C | 50% | 1014.7 hPa | 0 mm | - | - | - |
| 1777748765 | 32.78° C | 52% | 1014.7 hPa | 0 mm | - | - | - |
| 1777748462 | 32.22° C | 52% | 1014.8 hPa | 0 mm | - | - | - |
| 1777748156 | 32.78° C | 53% | 1014.7 hPa | 0 mm | - | - | - |
| 1777747854 | 33.33° C | 54% | 1014.7 hPa | 0 mm | - | - | - |
| 1777747550 | 32.78° C | 55% | 1014.8 hPa | 0 mm | - | - | - |
| 1777747245 | 32.78° C | 56% | 1014.7 hPa | 0 mm | - | - | - |
| 1777746942 | 32.78° C | 56% | 1014.7 hPa | 0 mm | - | - | - |
| 1777746638 | 32.78° C | 57% | 1014.7 hPa | 0 mm | - | - | - |
| 1777746333 | 31.67° C | 59% | 1014.8 hPa | 0 mm | - | - | - |
| 1777746030 | 31.67° C | 65% | 1015.1 hPa | 0 mm | - | - | - |
| 1777745728 | 30.56° C | 68% | 1015 hPa | 0 mm | - | - | - |
| 1777745426 | 30.56° C | 67% | 1015.1 hPa | 0 mm | - | - | - |
| 1777745123 | 31.11° C | 66% | 1015.1 hPa | 0 mm | - | - | - |
| 1777744820 | 30.56° C | 68% | 1015.2 hPa | 0 mm | - | - | - |
| 1777744519 | 31.11° C | 68% | 1015.3 hPa | 0 mm | - | - | - |
| 1777744216 | 31.67° C | 66% | 1015.3 hPa | 0 mm | - | - | - |
| 1777743913 | 30.56° C | 69% | 1015.4 hPa | 0 mm | - | - | - |
| 1777743609 | 30.56° C | 69% | 1015.7 hPa | 0 mm | - | - | - |
| 1777743307 | 30.56° C | 69% | 1015.8 hPa | 0 mm | - | - | - |
* Rain latest hour (hover to see other rain measurements)
** Current wind speed in m/s (hover to see current wind gust speed)